createdAt,value
2019-04-23T00:03:53.207Z,51.10
2019-04-23T00:06:48.907Z,51.20
2019-04-23T00:09:07.330Z,51.30
2019-04-23T00:11:34.409Z,51.10
2019-04-23T00:14:12.382Z,51.10
2019-04-23T00:16:44.915Z,51.20
2019-04-23T00:19:16.918Z,51.20
2019-04-23T00:21:59.974Z,51.30
2019-04-23T00:25:21.889Z,51.50
2019-04-23T00:29:53.412Z,51.50
2019-04-23T00:32:21.826Z,51.50
2019-04-23T00:34:55.790Z,51.50
2019-04-23T00:37:32.722Z,51.60
2019-04-23T00:45:19.027Z,51.40
2019-04-23T00:50:12.102Z,51.50
2019-04-23T00:52:44.091Z,51.40
2019-04-23T00:57:50.136Z,51.50
2019-04-23T01:00:26.024Z,51.50
2019-04-23T01:02:54.103Z,51.60
2019-04-23T01:05:24.054Z,51.90
2019-04-23T01:07:58.492Z,51.90
2019-04-23T01:10:36.338Z,51.80
2019-04-23T01:13:19.332Z,52.00
2019-04-23T01:15:49.510Z,51.90
2019-04-23T01:20:52.951Z,52.10
2019-04-23T01:23:13.665Z,52.00
2019-04-23T01:25:56.524Z,52.10
2019-04-23T01:33:51.361Z,52.50
2019-04-23T01:36:29.713Z,52.40
2019-04-23T01:38:58.527Z,52.50
2019-04-23T01:41:26.552Z,52.40
2019-04-23T01:43:55.201Z,52.60
2019-04-23T01:46:36.003Z,52.50
2019-04-23T01:49:07.434Z,52.70
2019-04-23T01:51:39.938Z,52.80
2019-04-23T01:54:09.548Z,52.80
2019-04-23T01:56:38.588Z,53.00
2019-04-23T01:59:20.070Z,52.80
2019-04-23T02:01:50.080Z,52.90
2019-04-23T02:04:24.427Z,53.00
2019-04-23T02:06:53.712Z,53.20
2019-04-23T02:09:26.064Z,53.40
2019-04-23T02:11:59.090Z,53.60
2019-04-23T02:14:34.909Z,53.60
2019-04-23T02:17:10.313Z,53.70
2019-04-23T02:22:25.337Z,53.70
2019-04-23T02:24:55.933Z,53.90
2019-04-23T02:27:28.306Z,53.90
2019-04-23T02:32:40.420Z,54.10
2019-04-23T02:35:32.663Z,54.20
2019-04-23T02:40:26.349Z,54.40
2019-04-23T02:45:16.514Z,54.50
2019-04-23T02:48:08.569Z,54.60
2019-04-23T02:53:05.229Z,54.70
2019-04-23T02:55:42.975Z,54.90
2019-04-23T03:00:39.944Z,55.10
2019-04-23T03:05:46.694Z,55.00
2019-04-23T03:08:20.278Z,55.30
2019-04-23T03:11:04.727Z,55.30
2019-04-23T03:16:21.853Z,55.20
2019-04-23T03:19:07.010Z,55.40
2019-04-23T03:24:55.854Z,55.60
2019-04-23T03:27:25.234Z,55.90
2019-04-23T03:29:57.280Z,55.90
2019-04-23T03:37:33.552Z,56.00
2019-04-23T03:40:02.122Z,56.10
2019-04-23T03:42:42.437Z,56.30
2019-04-23T03:45:20.183Z,56.30
2019-04-23T03:47:37.253Z,56.40
2019-04-23T03:50:05.292Z,56.60
2019-04-23T03:52:51.130Z,56.70
2019-04-23T03:55:18.513Z,56.90
2019-04-23T03:57:45.052Z,57.00
2019-04-23T04:00:32.950Z,57.80
2019-04-23T04:03:10.777Z,57.20
2019-04-23T04:08:16.025Z,57.40
2019-04-23T04:10:49.384Z,57.50
2019-04-23T04:13:07.204Z,57.50
2019-04-23T04:20:53.721Z,57.80
2019-04-23T04:25:56.645Z,57.90
2019-04-23T04:28:28.761Z,58.20
2019-04-23T04:31:05.621Z,58.30
2019-04-23T04:33:55.468Z,58.20
2019-04-23T04:36:15.988Z,58.20
2019-04-23T04:41:14.235Z,58.40
2019-04-23T04:46:37.166Z,58.60
2019-04-23T04:48:56.981Z,58.80
2019-04-23T04:54:09.703Z,59.00
2019-04-23T04:56:40.480Z,59.00
2019-04-23T05:01:36.899Z,59.00
2019-04-23T05:04:19.852Z,59.20
2019-04-23T05:06:59.378Z,59.30
2019-04-23T05:09:44.288Z,59.50
2019-04-23T05:11:54.214Z,59.50
2019-04-23T05:14:43.953Z,59.50
2019-04-23T05:22:06.654Z,59.70
2019-04-23T05:24:35.293Z,59.70
2019-04-23T05:27:02.927Z,59.90
2019-04-23T05:29:36.628Z,59.90
2019-04-23T05:32:10.015Z,60.00
2019-04-23T05:34:40.168Z,60.00
2019-04-23T05:37:11.640Z,60.20
2019-04-23T05:39:49.516Z,61.10
2019-04-23T05:42:19.609Z,60.40
2019-04-23T05:47:29.214Z,60.30
2019-04-23T05:49:58.949Z,60.00
2019-04-23T05:52:29.794Z,60.20
2019-04-23T05:55:02.425Z,60.30
2019-04-23T05:57:34.506Z,60.20
2019-04-23T06:00:13.838Z,60.30
2019-04-23T06:02:45.639Z,60.30
2019-04-23T06:05:15.654Z,60.30
2019-04-23T06:07:47.206Z,60.20
2019-04-23T06:10:23.204Z,59.90
2019-04-23T06:12:50.651Z,60.10
2019-04-23T06:15:26.752Z,60.20
2019-04-23T06:18:06.645Z,60.00
2019-04-23T06:20:35.052Z,60.20
2019-04-23T06:23:05.705Z,59.80
2019-04-23T06:28:14.483Z,59.50
2019-04-23T06:30:51.602Z,59.20
2019-04-23T06:35:50.460Z,59.40
2019-04-23T06:40:47.159Z,59.00
2019-04-23T06:43:24.274Z,59.20
2019-04-23T06:45:58.174Z,59.30
2019-04-23T06:51:09.230Z,58.90
2019-04-23T06:53:30.594Z,58.30
2019-04-23T06:56:10.684Z,58.60
2019-04-23T07:01:11.386Z,58.80
2019-04-23T07:03:51.830Z,58.30
2019-04-23T07:06:26.609Z,58.10
2019-04-23T07:13:57.144Z,58.10
2019-04-23T07:19:14.539Z,57.60
2019-04-23T07:21:33.557Z,58.00
2019-04-23T07:24:12.987Z,57.90
2019-04-23T07:26:40.741Z,57.70
2019-04-23T07:29:15.402Z,57.90
2019-04-23T07:31:51.518Z,58.10
2019-04-23T07:34:13.842Z,57.50
2019-04-23T07:36:47.753Z,56.70
2019-04-23T07:39:47.302Z,56.70
2019-04-23T07:42:28.064Z,56.70
2019-04-23T07:45:18.907Z,56.50
2019-04-23T07:48:11.231Z,55.80
2019-04-23T08:03:22.630Z,55.40
2019-04-23T08:05:55.493Z,55.40
2019-04-23T08:08:43.801Z,55.20
2019-04-23T08:13:47.599Z,55.60
2019-04-23T08:18:54.147Z,54.30
2019-04-23T08:24:01.623Z,54.80
2019-04-23T08:29:36.127Z,53.60
2019-04-23T08:32:15.103Z,53.80
2019-04-23T08:34:56.313Z,53.60
2019-04-23T08:37:27.316Z,53.60
2019-04-23T08:45:29.897Z,53.30
2019-04-23T08:48:27.536Z,53.00
2019-04-23T08:50:46.634Z,52.00
2019-04-23T08:53:34.558Z,51.50
2019-04-23T08:56:02.026Z,51.60
2019-04-23T09:01:05.115Z,49.80
2019-04-23T09:06:05.864Z,49.50
2019-04-23T09:11:17.639Z,48.70
2019-04-23T09:16:08.670Z,48.40
2019-04-23T09:19:04.583Z,48.10
2019-04-23T09:21:14.125Z,47.30
2019-04-23T09:26:19.165Z,46.80
2019-04-23T09:28:53.237Z,46.50
2019-04-23T09:32:01.954Z,46.50
2019-04-23T09:34:18.766Z,47.40
2019-04-23T09:37:06.191Z,47.50
2019-04-23T09:39:44.521Z,47.00
2019-04-23T09:42:31.873Z,46.90
2019-04-23T09:47:57.304Z,46.10
2019-04-23T09:50:29.833Z,46.50
2019-04-23T09:55:35.828Z,46.40
2019-04-23T09:58:08.125Z,45.80
2019-04-23T10:00:54.336Z,46.00
2019-04-23T10:03:04.851Z,46.40
2019-04-23T10:05:30.865Z,47.00
2019-04-23T10:08:03.081Z,47.50
2019-04-23T10:10:26.140Z,46.00
2019-04-23T10:12:58.119Z,44.50
2019-04-23T10:15:34.330Z,44.40
2019-04-23T10:18:02.416Z,44.80
2019-04-23T10:20:34.438Z,44.60
2019-04-23T10:23:06.277Z,45.00
2019-04-23T10:25:38.423Z,43.80
2019-04-23T10:28:18.434Z,43.90
2019-04-23T10:30:49.014Z,44.00
2019-04-23T10:33:21.275Z,43.00
2019-04-23T10:35:58.955Z,43.20
2019-04-23T10:38:26.718Z,42.60
2019-04-23T10:40:58.092Z,41.60
2019-04-23T10:43:31.502Z,40.70
2019-04-23T10:46:29.566Z,40.80
2019-04-23T10:52:02.291Z,40.80
2019-04-23T10:57:23.175Z,39.90
2019-04-23T10:59:40.363Z,40.40
2019-04-23T11:02:33.743Z,41.00
2019-04-23T11:12:44.381Z,38.50
2019-04-23T11:15:36.175Z,39.20
2019-04-23T11:21:07.416Z,38.10
2019-04-23T11:22:57.158Z,37.50
2019-04-23T11:33:15.187Z,37.30
2019-04-23T11:36:04.179Z,36.90
2019-04-23T11:40:50.830Z,36.00
2019-04-23T11:43:28.521Z,35.60
2019-04-23T11:46:10.574Z,34.80
2019-04-23T11:48:46.189Z,35.40
2019-04-23T11:53:44.348Z,34.70
2019-04-23T11:56:13.632Z,34.20
2019-04-23T11:58:42.181Z,33.80
2019-04-23T12:01:47.653Z,34.20
2019-04-23T12:04:26.523Z,33.80
2019-04-23T12:07:21.397Z,34.40
2019-04-23T12:09:55.056Z,35.20
2019-04-23T12:12:28.540Z,35.80
2019-04-23T12:15:03.672Z,35.70
2019-04-23T12:17:42.224Z,36.20
2019-04-23T12:20:13.440Z,36.00
2019-04-23T12:22:51.776Z,36.80
2019-04-23T12:27:39.687Z,36.90
2019-04-23T12:30:30.214Z,37.30
2019-04-23T12:33:10.451Z,36.80
2019-04-23T12:35:25.685Z,36.90
2019-04-23T12:38:03.690Z,36.40
2019-04-23T12:43:12.777Z,36.20
2019-04-23T12:53:29.408Z,36.60
2019-04-23T12:58:26.906Z,37.80
2019-04-23T13:00:52.851Z,37.80
2019-04-23T13:03:29.872Z,36.50
2019-04-23T13:05:59.294Z,36.80
2019-04-23T13:08:44.638Z,37.80
2019-04-23T13:11:14.041Z,36.60
2019-04-23T13:13:48.448Z,36.70
2019-04-23T13:16:25.258Z,37.60
2019-04-23T13:18:49.617Z,37.30
2019-04-23T13:21:45.196Z,37.10
2019-04-23T13:24:11.437Z,36.90
2019-04-23T13:26:42.198Z,36.50
2019-04-23T13:29:18.826Z,36.60
2019-04-23T13:31:39.917Z,36.90
2019-04-23T13:34:22.989Z,38.10
2019-04-23T13:36:53.823Z,38.90
2019-04-23T13:39:24.529Z,39.40
2019-04-23T13:41:53.943Z,39.60
2019-04-23T13:44:36.114Z,40.50
2019-04-23T13:47:12.659Z,40.70
2019-04-23T13:49:45.195Z,41.60
2019-04-23T13:52:27.697Z,41.30
2019-04-23T13:54:59.891Z,41.80
2019-04-23T13:57:50.801Z,42.10
2019-04-23T13:59:48.436Z,41.70
2019-04-23T14:02:31.766Z,42.50
2019-04-23T14:05:13.057Z,42.80
2019-04-23T14:07:48.568Z,43.30
2019-04-23T14:10:31.136Z,43.50
2019-04-23T14:13:08.253Z,43.50
2019-04-23T14:15:35.743Z,43.50
2019-04-23T14:18:22.743Z,44.30
2019-04-23T14:23:24.349Z,45.70
2019-04-23T14:25:40.528Z,45.30
2019-04-23T14:28:21.985Z,45.20
2019-04-23T14:30:59.276Z,45.30
2019-04-23T14:33:29.015Z,44.60
2019-04-23T14:35:54.116Z,44.50
2019-04-23T14:41:05.079Z,44.50
2019-04-23T14:43:30.884Z,43.90
2019-04-23T14:51:26.425Z,43.10
2019-04-23T14:53:48.084Z,43.80
2019-04-23T14:56:29.831Z,44.30
2019-04-23T15:01:35.383Z,44.80
2019-04-23T15:03:56.899Z,45.30
2019-04-23T15:06:36.516Z,45.40
2019-04-23T15:09:19.654Z,45.90
2019-04-23T15:14:10.103Z,46.40
2019-04-23T15:16:44.846Z,46.20
2019-04-23T15:19:34.512Z,46.60
2019-04-23T15:22:05.270Z,47.10
2019-04-23T15:28:01.989Z,47.40
2019-04-23T15:29:26.840Z,47.40
2019-04-23T15:32:14.852Z,47.70
2019-04-23T15:34:37.266Z,47.80
2019-04-23T15:37:33.497Z,47.30
2019-04-23T15:39:47.712Z,47.60
2019-04-23T15:42:32.951Z,47.80
2019-04-23T15:44:56.017Z,48.00
2019-04-23T15:50:06.943Z,47.30
2019-04-23T15:52:39.312Z,47.40
2019-04-23T15:55:01.299Z,47.90
2019-04-23T15:57:53.983Z,47.70
2019-04-23T16:00:05.260Z,47.80
2019-04-23T16:02:11.849Z,47.70
2019-04-23T16:04:43.936Z,48.60
2019-04-23T16:07:31.875Z,47.50
2019-04-23T16:10:22.283Z,47.50
2019-04-23T16:12:54.719Z,48.10
2019-04-23T16:15:38.380Z,48.30
2019-04-23T16:18:22.023Z,48.60
2019-04-23T16:20:50.317Z,48.70
2019-04-23T16:23:16.880Z,49.10
2019-04-23T16:25:49.713Z,49.40
2019-04-23T16:28:35.493Z,50.20
2019-04-23T16:30:59.328Z,50.00
2019-04-23T16:33:20.198Z,50.20
2019-04-23T16:36:21.560Z,50.50
2019-04-23T16:38:38.951Z,50.60
2019-04-23T16:41:12.917Z,50.70
2019-04-23T16:43:44.396Z,50.70
2019-04-23T16:46:13.100Z,50.70
2019-04-23T16:49:01.478Z,50.40
2019-04-23T16:51:24.962Z,50.70
2019-04-23T16:53:56.302Z,51.20
2019-04-23T17:01:24.970Z,51.40
2019-04-23T17:04:13.767Z,51.80
2019-04-23T17:06:35.821Z,51.80
2019-04-23T17:09:09.477Z,51.70
2019-04-23T17:11:44.478Z,51.80
2019-04-23T17:14:21.597Z,52.10
2019-04-23T17:16:44.412Z,52.30
2019-04-23T17:19:24.208Z,52.20
2019-04-23T17:27:07.140Z,53.00
2019-04-23T17:32:09.896Z,53.30
2019-04-23T17:34:54.759Z,53.70
2019-04-23T17:37:26.705Z,54.30
2019-04-23T17:40:13.574Z,54.20
2019-04-23T17:42:46.614Z,54.40
2019-04-23T17:53:25.387Z,54.00
2019-04-23T17:56:18.458Z,54.00
2019-04-23T17:58:28.604Z,54.30
2019-04-23T18:01:17.598Z,54.50
2019-04-23T18:03:50.327Z,54.50
2019-04-23T18:08:49.260Z,54.90
2019-04-23T18:11:31.903Z,55.00
2019-04-23T18:13:57.066Z,55.40
2019-04-23T18:16:36.951Z,56.00
2019-04-23T18:19:05.763Z,56.10
2019-04-23T18:24:51.169Z,56.70
2019-04-23T18:27:21.462Z,56.90
2019-04-23T18:30:00.742Z,57.20
2019-04-23T18:32:47.756Z,57.40
2019-04-23T18:37:41.259Z,57.90
2019-04-23T18:40:10.087Z,58.00
2019-04-23T18:43:02.559Z,58.20
2019-04-23T18:45:31.667Z,58.50
2019-04-23T18:48:18.058Z,58.70
2019-04-23T18:50:39.885Z,59.00
2019-04-23T18:53:15.913Z,59.20
2019-04-23T18:56:03.586Z,59.20
2019-04-23T18:58:13.413Z,59.30
2019-04-23T19:00:55.190Z,59.60
2019-04-23T19:03:30.236Z,60.20
2019-04-23T19:06:31.996Z,59.70
2019-04-23T19:09:03.169Z,60.60
2019-04-23T19:11:58.144Z,60.50
2019-04-23T19:14:11.079Z,60.90
2019-04-23T19:16:54.907Z,61.40
2019-04-23T19:19:24.438Z,61.50
2019-04-23T19:24:22.147Z,61.80
2019-04-23T19:27:10.676Z,61.80
2019-04-23T19:29:34.922Z,62.10
2019-04-23T19:32:00.727Z,62.20
2019-04-23T19:37:02.337Z,62.30
2019-04-23T19:44:51.212Z,63.60
2019-04-23T19:47:33.336Z,64.10
2019-04-23T19:50:18.087Z,63.80
2019-04-23T19:52:48.216Z,63.90
2019-04-23T19:57:39.696Z,65.20
2019-04-23T20:02:58.256Z,66.10
2019-04-23T20:05:07.267Z,66.00
2019-04-23T20:07:47.361Z,66.70
2019-04-23T20:10:04.118Z,67.00
2019-04-23T20:15:08.384Z,66.20
2019-04-23T20:17:51.369Z,66.10
2019-04-23T20:20:26.473Z,66.20
2019-04-23T20:22:51.532Z,66.10
2019-04-23T20:25:53.739Z,66.00
2019-04-23T20:28:14.771Z,65.80
2019-04-23T20:30:54.445Z,65.80
2019-04-23T20:36:13.973Z,65.50
2019-04-23T20:38:47.672Z,65.70
2019-04-23T20:41:15.239Z,66.20
2019-04-23T20:43:50.446Z,66.50
2019-04-23T20:46:14.903Z,66.70
2019-04-23T20:48:53.673Z,67.10
2019-04-23T20:51:24.539Z,67.50
2019-04-23T20:53:59.789Z,67.80
2019-04-23T20:56:39.724Z,67.50
2019-04-23T20:59:01.531Z,67.40
2019-04-23T21:01:50.029Z,67.90
2019-04-23T21:04:13.920Z,68.30
2019-04-23T21:09:28.195Z,68.90
2019-04-23T21:11:57.990Z,69.60
2019-04-23T21:14:39.771Z,70.20
2019-04-23T21:16:54.909Z,70.50
2019-04-23T21:19:48.279Z,70.90
2019-04-23T21:22:13.665Z,71.50
2019-04-23T21:24:43.301Z,72.30
2019-04-23T21:27:39.402Z,73.00
2019-04-23T21:32:45.361Z,73.90
2019-04-23T21:37:54.138Z,74.30
2019-04-23T21:43:16.273Z,73.90
2019-04-23T21:48:28.002Z,73.70
2019-04-23T21:50:57.925Z,73.70
2019-04-23T21:53:25.971Z,73.60
2019-04-23T21:58:35.055Z,73.90
2019-04-23T22:01:21.210Z,74.40
2019-04-23T22:06:31.576Z,75.50
2019-04-23T22:09:05.648Z,76.40
2019-04-23T22:11:49.574Z,77.20
2019-04-23T22:16:46.746Z,78.00
2019-04-23T22:24:19.339Z,79.40
2019-04-23T22:26:45.432Z,79.80
2019-04-23T22:29:18.390Z,80.20
2019-04-23T22:34:22.192Z,80.90
2019-04-23T22:37:09.822Z,81.30
2019-04-23T22:39:24.951Z,81.60
2019-04-23T22:42:08.789Z,82.10
2019-04-23T22:44:48.135Z,82.60
2019-04-23T22:50:05.893Z,83.90
2019-04-23T22:52:22.992Z,84.60
2019-04-23T22:54:57.154Z,84.60
2019-04-23T22:57:17.375Z,84.30
2019-04-23T23:00:08.407Z,83.70
2019-04-23T23:02:53.816Z,83.10
2019-04-23T23:07:59.422Z,81.60
2019-04-23T23:10:19.986Z,80.60
2019-04-23T23:13:04.174Z,80.00
2019-04-23T23:15:37.167Z,79.90
2019-04-23T23:18:07.467Z,79.80
2019-04-23T23:20:36.637Z,79.70
2019-04-23T23:23:18.050Z,79.70
2019-04-23T23:25:39.694Z,80.60
2019-04-23T23:28:31.092Z,82.90
2019-04-23T23:33:17.266Z,85.50
2019-04-23T23:35:53.415Z,86.40
2019-04-23T23:38:27.430Z,87.10
2019-04-23T23:41:05.329Z,87.60
2019-04-23T23:43:29.998Z,88.10
2019-04-23T23:46:22.141Z,88.50
2019-04-23T23:48:35.565Z,88.90
2019-04-23T23:51:11.561Z,89.10
2019-04-23T23:53:53.300Z,89.10
2019-04-23T23:58:53.984Z,89.40
